Time;durP1;ratioP1;P1;durP2;ratioP2;P2;SDS_P1;SDS_P2;PMS_P1;PMS_P2;Temp;Humidity;BMP_temperature;BMP_pressure;BME280_temperature;BME280_humidity;BME280_pressure;Samples;Min_cycle;Max_cycle;Signal;HPM_P1;HPM_P2
2022/01/07 00:01:27;;;;;;;9.73;8.77;;;2.50;52.20;;;;;;20730;6854;116616;-86
2022/01/07 00:03:52;;;;;;;12.87;9.33;;;2.50;52.00;;;;;;20716;6854;117318;-84
2022/01/07 00:06:19;;;;;;;13.80;8.73;;;2.00;53.10;;;;;;20730;6854;117527;-87
2022/01/07 00:08:44;;;;;;;11.40;9.00;;;2.00;53.10;;;;;;20723;6854;117047;-85
2022/01/07 00:11:11;;;;;;;9.47;8.43;;;1.70;54.40;;;;;;20733;6854;117512;-84
2022/01/07 00:13:36;;;;;;;12.23;10.93;;;1.70;53.80;;;;;;20495;6854;307218;-85
2022/01/07 00:16:03;;;;;;;12.45;8.85;;;1.90;53.90;;;;;;20728;6854;117827;-87
2022/01/07 00:18:28;;;;;;;9.20;7.90;;;1.90;53.50;;;;;;20722;6854;118447;-87
2022/01/07 00:20:54;;;;;;;10.88;9.77;;;1.70;53.70;;;;;;20526;6854;279121;-86
2022/01/07 00:23:20;;;;;;;9.37;8.37;;;1.90;53.90;;;;;;20736;6854;116415;-87
2022/01/07 00:25:46;;;;;;;12.57;10.40;;;1.90;53.70;;;;;;20502;6852;304382;-87
2022/01/07 00:28:11;;;;;;;12.52;11.10;;;2.00;53.70;;;;;;20531;6853;336886;-88
2022/01/07 00:30:37;;;;;;;11.80;10.67;;;2.40;53.00;;;;;;20557;6854;337389;-87
2022/01/07 00:33:02;;;;;;;12.57;10.67;;;2.60;52.30;;;;;;20553;6854;337005;-88
2022/01/07 00:35:28;;;;;;;12.57;11.07;;;2.80;52.10;;;;;;20550;6854;321689;-87
2022/01/07 00:37:55;;;;;;;13.87;11.30;;;2.90;51.30;;;;;;20527;6854;277974;-85
2022/01/07 00:40:20;;;;;;;10.87;9.87;;;3.00;50.70;;;;;;20739;6854;116996;-89
2022/01/07 00:42:46;;;;;;;14.13;11.82;;;2.80;51.00;;;;;;20515;6854;308860;-85
2022/01/07 00:45:11;;;;;;;15.27;12.33;;;2.70;51.40;;;;;;20520;6854;308250;-85
2022/01/07 00:47:37;;;;;;;14.57;12.23;;;2.80;51.10;;;;;;20504;6854;308115;-86
2022/01/07 00:50:03;;;;;;;12.43;10.73;;;3.00;50.50;;;;;;20729;6854;118391;-87
2022/01/07 00:52:28;;;;;;;15.33;12.00;;;2.70;50.80;;;;;;20513;6854;309005;-86
2022/01/07 00:54:55;;;;;;;13.00;10.60;;;2.70;51.20;;;;;;20542;6854;299700;-89
2022/01/07 00:57:19;;;;;;;11.80;9.93;;;2.80;51.10;;;;;;20733;6854;117554;-86
2022/01/07 00:59:46;;;;;;;12.70;9.07;;;2.60;51.50;;;;;;20713;6854;121296;-87
2022/01/07 01:02:11;;;;;;;10.52;9.48;;;2.30;51.90;;;;;;20709;6854;117991;-86
2022/01/07 01:04:36;;;;;;;11.63;9.47;;;2.00;52.50;;;;;;20697;6854;116873;-86
2022/01/07 01:07:02;;;;;;;12.35;11.15;;;1.80;53.10;;;;;;20505;6854;277848;-87
2022/01/07 01:09:27;;;;;;;10.47;9.37;;;1.90;53.50;;;;;;20686;6854;118538;-86
2022/01/07 01:11:53;;;;;;;11.98;10.88;;;1.90;53.30;;;;;;20487;6854;303916;-87
2022/01/07 01:14:20;;;;;;;12.03;9.70;;;2.10;53.50;;;;;;20731;6854;116927;-85
2022/01/07 01:16:47;;;;;;;10.43;9.37;;;2.10;53.10;;;;;;20753;6854;116518;-88
2022/01/07 01:19:12;;;;;;;10.53;8.70;;;1.90;53.40;;;;;;20733;6854;116694;-88
2022/01/07 01:21:38;;;;;;;9.33;8.43;;;1.70;53.80;;;;;;20705;6854;117393;-89
2022/01/07 01:24:03;;;;;;;12.33;11.03;;;1.60;54.10;;;;;;20520;6854;313176;-88
2022/01/07 01:26:29;;;;;;;11.43;10.40;;;1.70;54.20;;;;;;20515;6854;309118;-87
2022/01/07 01:28:54;;;;;;;11.45;10.43;;;2.10;53.50;;;;;;20524;6854;279424;-87
2022/01/07 01:31:21;;;;;;;9.93;8.90;;;2.40;52.80;;;;;;20733;6854;116634;-85
2022/01/07 01:33:46;;;;;;;9.17;8.40;;;2.30;52.50;;;;;;20714;6854;117341;-88
2022/01/07 01:36:12;;;;;;;10.67;9.77;;;2.10;53.10;;;;;;20521;6854;284278;-85
2022/01/07 01:38:38;;;;;;;12.43;11.13;;;2.40;52.20;;;;;;20524;6853;308144;-85
2022/01/07 01:41:04;;;;;;;10.33;8.87;;;2.40;52.20;;;;;;20730;6854;117855;-90
2022/01/07 01:43:31;;;;;;;9.65;8.68;;;2.30;52.00;;;;;;20716;6854;118931;-89
2022/01/07 01:45:57;;;;;;;9.17;8.27;;;2.10;52.50;;;;;;20712;6854;119749;-86
2022/01/07 01:48:23;;;;;;;11.85;10.68;;;1.80;52.90;;;;;;20523;6854;307107;-88
2022/01/07 01:50:48;;;;;;;12.30;10.73;;;1.90;52.30;;;;;;20523;6854;309041;-87
2022/01/07 01:53:13;;;;;;;12.15;10.90;;;2.10;51.40;;;;;;20525;6854;278079;-87
2022/01/07 01:55:39;;;;;;;11.85;10.75;;;2.40;50.10;;;;;;20498;6854;310018;-87
2022/01/07 01:58:06;;;;;;;12.33;9.13;;;2.40;49.30;;;;;;20735;6854;116836;-85
2022/01/07 02:00:31;;;;;;;11.27;10.18;;;2.20;49.50;;;;;;20527;6854;337959;-87
2022/01/07 02:02:58;;;;;;;10.85;9.75;;;2.10;50.00;;;;;;20509;6854;309321;-86
2022/01/07 02:05:24;;;;;;;9.93;8.33;;;2.30;50.00;;;;;;20741;6854;116612;-86
2022/01/07 02:07:49;;;;;;;10.88;9.77;;;2.10;50.00;;;;;;20477;6854;307794;-85
2022/01/07 02:10:15;;;;;;;9.03;8.27;;;2.10;50.10;;;;;;20724;6854;118755;-88
2022/01/07 02:12:40;;;;;;;11.13;10.13;;;1.90;50.10;;;;;;20498;6854;295716;-86
2022/01/07 02:15:06;;;;;;;9.17;8.40;;;1.90;50.80;;;;;;20715;6854;118056;-87
2022/01/07 02:17:33;;;;;;;11.00;9.63;;;1.80;50.70;;;;;;20507;6854;307214;-87
2022/01/07 02:19:58;;;;;;;9.73;8.40;;;1.90;51.40;;;;;;20711;6854;117603;-88
2022/01/07 02:22:24;;;;;;;11.33;10.23;;;1.80;50.80;;;;;;20521;6854;307129;-88
2022/01/07 02:24:50;;;;;;;9.00;8.18;;;1.70;50.60;;;;;;20727;6854;117613;-87
2022/01/07 02:27:16;;;;;;;8.43;7.70;;;1.70;50.60;;;;;;20723;6854;117604;-86
2022/01/07 02:29:44;;;;;;;26.02;7.72;;;1.50;51.00;;;;;;20718;6854;116303;-87
2022/01/07 02:32:10;;;;;;;81.20;9.70;;;1.20;51.40;;;;;;20716;6854;116740;-88
2022/01/07 02:34:35;;;;;;;58.33;12.37;;;1.00;51.90;;;;;;20518;6854;308622;-87
2022/01/07 02:37:01;;;;;;;213.25;18.48;;;1.10;52.10;;;;;;20514;6854;299212;-86
2022/01/07 02:39:27;;;;;;;327.43;21.60;;;1.50;51.60;;;;;;20721;6854;118223;-90
2022/01/07 02:41:53;;;;;;;214.00;14.80;;;1.50;51.60;;;;;;20704;6854;123734;-85
2022/01/07 02:44:19;;;;;;;52.57;9.33;;;1.00;52.40;;;;;;20721;6854;120017;-87
2022/01/07 02:46:49;;;;;;;10.70;9.80;;;1.00;52.30;;;;;;20513;6854;308530;-86
2022/01/07 02:49:15;;;;;;;11.07;10.10;;;1.10;52.50;;;;;;20512;6852;310074;-84
2022/01/07 02:51:40;;;;;;;9.60;8.60;;;1.50;51.70;;;;;;20714;6854;117556;-87
2022/01/07 02:54:06;;;;;;;8.27;7.43;;;1.40;51.40;;;;;;20735;6854;118450;-86
2022/01/07 02:56:31;;;;;;;8.03;7.33;;;1.20;51.80;;;;;;20716;6854;117870;-84
2022/01/07 02:58:57;;;;;;;11.00;10.00;;;1.00;52.30;;;;;;20530;6854;283388;-86
2022/01/07 03:01:24;;;;;;;10.67;9.87;;;1.10;52.50;;;;;;20525;6854;279556;-84
2022/01/07 03:03:49;;;;;;;8.97;8.20;;;1.40;51.70;;;;;;20704;6854;118335;-87
2022/01/07 03:06:15;;;;;;;8.95;8.13;;;1.40;51.50;;;;;;20721;6854;118555;-89
2022/01/07 03:08:40;;;;;;;8.23;7.40;;;1.20;51.90;;;;;;20722;6854;117249;-84
2022/01/07 03:11:06;;;;;;;8.32;7.70;;;1.00;52.40;;;;;;20714;6854;117076;-84
2022/01/07 03:13:31;;;;;;;9.03;8.13;;;0.90;52.80;;;;;;20724;6854;117273;-87
2022/01/07 03:15:58;;;;;;;9.07;8.27;;;0.60;53.30;;;;;;20714;6854;117556;-84
2022/01/07 03:18:23;;;;;;;8.50;7.63;;;0.60;53.30;;;;;;20729;6854;117159;-87
2022/01/07 03:20:49;;;;;;;9.90;9.10;;;0.50;53.50;;;;;;20522;6854;284131;-83
2022/01/07 03:23:15;;;;;;;9.07;8.27;;;0.70;53.10;;;;;;20722;6854;116301;-84
2022/01/07 03:25:40;;;;;;;10.15;9.32;;;0.70;52.70;;;;;;20496;6854;337785;-87
2022/01/07 03:28:08;;;;;;;11.30;9.40;;;0.90;52.10;;;;;;20731;6854;121889;-86
2022/01/07 03:30:32;;;;;;;8.93;8.13;;;0.90;52.10;;;;;;20719;6854;120147;-86
2022/01/07 03:32:57;;;;;;;9.00;8.18;;;0.80;52.50;;;;;;20727;6854;117158;-85
2022/01/07 03:35:23;;;;;;;8.57;7.53;;;0.60;52.90;;;;;;20720;6854;117210;-87
2022/01/07 03:37:49;;;;;;;11.80;10.73;;;0.50;53.30;;;;;;20484;6854;309014;-86
2022/01/07 03:40:14;;;;;;;15.15;11.18;;;0.60;53.00;;;;;;20501;6854;312868;-85
2022/01/07 03:42:40;;;;;;;24.70;10.50;;;1.00;52.20;;;;;;20721;6854;117784;-88
2022/01/07 03:45:05;;;;;;;13.38;11.88;;;1.00;52.00;;;;;;20510;6854;294361;-83
2022/01/07 03:47:32;;;;;;;13.77;12.30;;;1.30;51.40;;;;;;20508;6854;312538;-87
2022/01/07 03:49:57;;;;;;;11.37;10.27;;;1.30;51.40;;;;;;20705;6854;119485;-87
2022/01/07 03:52:23;;;;;;;8.93;8.13;;;1.20;51.20;;;;;;20721;6854;117581;-86
2022/01/07 03:54:50;;;;;;;9.70;8.70;;;1.00;51.90;;;;;;20725;6854;116467;-85
2022/01/07 03:57:14;;;;;;;12.77;11.57;;;0.70;52.40;;;;;;20506;6854;341473;-85
2022/01/07 03:59:39;;;;;;;12.43;11.23;;;0.80;52.70;;;;;;20497;6852;278773;-86
2022/01/07 04:02:05;;;;;;;12.23;11.20;;;1.10;52.00;;;;;;20520;6853;308165;-87
2022/01/07 04:04:31;;;;;;;11.73;10.17;;;1.40;51.40;;;;;;20737;6854;117093;-85
2022/01/07 04:06:56;;;;;;;12.53;11.37;;;1.30;51.30;;;;;;20517;6854;308691;-84
2022/01/07 04:09:22;;;;;;;9.55;8.57;;;1.30;51.40;;;;;;20734;6854;117516;-87
2022/01/07 04:11:47;;;;;;;9.30;8.43;;;1.20;51.50;;;;;;20729;6854;117570;-86
2022/01/07 04:14:13;;;;;;;11.50;10.43;;;0.90;51.90;;;;;;20523;6854;312410;-85
2022/01/07 04:16:39;;;;;;;11.20;10.15;;;0.90;52.60;;;;;;20536;6854;309173;-86
2022/01/07 04:19:04;;;;;;;8.97;8.17;;;1.20;51.20;;;;;;20726;6854;117013;-86
2022/01/07 04:21:30;;;;;;;8.67;7.80;;;1.10;51.10;;;;;;20730;6854;120195;-84
2022/01/07 04:23:57;;;;;;;10.05;9.15;;;0.90;51.70;;;;;;20497;6854;311373;-88
2022/01/07 04:26:22;;;;;;;9.70;8.80;;;0.90;51.70;;;;;;20534;6854;308323;-88
2022/01/07 04:28:49;;;;;;;9.83;8.93;;;1.20;51.10;;;;;;20550;6854;281418;-88
2022/01/07 04:31:15;;;;;;;9.77;8.80;;;1.70;50.00;;;;;;20519;6854;307837;-86
2022/01/07 04:33:42;;;;;;;8.53;7.83;;;1.60;50.00;;;;;;20499;6854;306365;-88
2022/01/07 04:36:07;;;;;;;10.07;8.37;;;1.80;49.50;;;;;;20512;6854;282808;-84
2022/01/07 04:38:33;;;;;;;10.53;6.87;;;1.90;49.10;;;;;;20723;6854;117620;-88
2022/01/07 04:40:59;;;;;;;7.35;6.32;;;1.70;49.30;;;;;;20722;6854;117786;-87
2022/01/07 04:43:24;;;;;;;8.23;7.35;;;1.30;50.10;;;;;;20517;6854;313377;-85
2022/01/07 04:45:51;;;;;;;8.90;8.00;;;1.30;50.70;;;;;;20497;6854;323263;-85
2022/01/07 04:48:15;;;;;;;8.82;8.00;;;1.50;50.00;;;;;;20511;6854;308182;-88
2022/01/07 04:50:42;;;;;;;8.80;7.93;;;1.90;49.10;;;;;;20516;6854;310057;-88
2022/01/07 04:53:07;;;;;;;7.80;7.10;;;1.90;49.10;;;;;;20723;6854;118454;-84
2022/01/07 04:55:37;;;;;;;8.63;7.00;;;1.70;49.30;;;;;;20730;6854;117260;-84
2022/01/07 04:58:01;;;;;;;6.73;6.23;;;1.40;50.00;;;;;;20728;6854;117334;-84
2022/01/07 05:00:27;;;;;;;7.05;6.30;;;1.10;50.60;;;;;;20721;6854;118400;-86
2022/01/07 05:02:53;;;;;;;8.75;7.95;;;0.80;51.10;;;;;;20523;6854;280080;-85
2022/01/07 05:05:18;;;;;;;7.87;7.07;;;0.90;51.30;;;;;;20730;6854;116589;-87
2022/01/07 05:07:44;;;;;;;6.53;6.03;;;0.90;51.30;;;;;;20706;6854;117530;-84
2022/01/07 05:10:09;;;;;;;8.73;7.87;;;0.80;51.60;;;;;;20505;6854;307493;-85
2022/01/07 05:12:35;;;;;;;7.47;6.78;;;0.90;51.60;;;;;;20724;6853;116413;-88
2022/01/07 05:15:00;;;;;;;7.13;6.37;;;0.90;51.50;;;;;;20723;6854;117743;-87
2022/01/07 05:17:27;;;;;;;6.22;5.62;;;0.70;52.30;;;;;;20725;6854;117578;-87
2022/01/07 05:19:52;;;;;;;6.60;5.60;;;0.60;52.20;;;;;;20704;6854;118542;-84
2022/01/07 05:22:18;;;;;;;6.10;5.60;;;0.50;52.60;;;;;;20723;6854;118299;-87
2022/01/07 05:24:43;;;;;;;8.10;7.30;;;0.40;52.90;;;;;;20443;6854;308108;-86
2022/01/07 05:27:10;;;;;;;6.30;5.70;;;0.60;52.70;;;;;;20717;6854;120490;-87
2022/01/07 05:29:38;;;;;;;8.83;5.57;;;0.70;52.50;;;;;;20697;6854;117479;-86
2022/01/07 05:32:07;;;;;;;6.93;5.70;;;0.60;52.60;;;;;;20728;6854;116337;-87
2022/01/07 05:34:32;;;;;;;7.50;6.90;;;0.50;53.00;;;;;;20503;6854;283632;-84
2022/01/07 05:36:58;;;;;;;6.87;6.27;;;0.70;52.70;;;;;;20710;6854;117152;-86
2022/01/07 05:39:23;;;;;;;7.80;7.10;;;0.80;52.50;;;;;;20510;6854;279446;-87
2022/01/07 05:41:49;;;;;;;6.40;5.77;;;0.90;52.20;;;;;;20702;6854;117380;-86
2022/01/07 05:44:14;;;;;;;8.77;7.40;;;1.00;52.00;;;;;;20513;6854;308181;-86
2022/01/07 05:46:40;;;;;;;8.00;7.30;;;1.10;51.40;;;;;;20512;6854;307683;-87
2022/01/07 05:49:06;;;;;;;6.95;6.35;;;1.40;50.50;;;;;;20731;6854;118063;-84
2022/01/07 05:51:31;;;;;;;7.15;6.62;;;1.30;50.30;;;;;;20516;6854;315103;-85
2022/01/07 05:53:57;;;;;;;6.50;5.90;;;1.40;50.30;;;;;;20716;6854;119065;-86
2022/01/07 05:56:24;;;;;;;7.03;5.10;;;1.10;51.40;;;;;;20722;6854;117602;-86
2022/01/07 05:58:50;;;;;;;5.80;5.30;;;1.10;50.70;;;;;;20574;6854;117576;-85
2022/01/07 06:01:15;;;;;;;5.50;4.80;;;0.90;51.30;;;;;;20713;6854;116784;-90
2022/01/07 06:03:41;;;;;;;7.83;6.33;;;0.70;51.70;;;;;;20478;6854;277924;-87
2022/01/07 06:06:08;;;;;;;5.70;5.20;;;0.80;51.40;;;;;;20705;6854;117365;-85
2022/01/07 06:08:34;;;;;;;5.37;4.87;;;0.90;51.40;;;;;;20719;6854;117168;-86
2022/01/07 06:11:00;;;;;;;5.10;4.60;;;0.80;51.70;;;;;;20710;6854;121701;-91
2022/01/07 06:13:26;;;;;;;5.37;4.87;;;0.70;52.20;;;;;;20733;6854;116267;-89
2022/01/07 06:15:51;;;;;;;6.10;5.37;;;0.60;52.50;;;;;;20704;6854;117343;-89
2022/01/07 06:18:17;;;;;;;5.07;4.67;;;0.50;52.80;;;;;;20731;6854;116464;-88
2022/01/07 06:20:43;;;;;;;5.00;4.60;;;0.50;53.30;;;;;;20722;6854;117782;-90
2022/01/07 06:23:09;;;;;;;6.47;5.87;;;0.40;53.20;;;;;;20494;6852;278968;-85
2022/01/07 06:25:34;;;;;;;6.28;5.78;;;0.70;52.50;;;;;;20518;6853;309032;-85
2022/01/07 06:28:00;;;;;;;7.87;5.72;;;1.10;50.80;;;;;;20734;6854;118804;-90
2022/01/07 06:30:25;;;;;;;5.83;4.90;;;1.10;50.50;;;;;;20731;6854;116527;-86
2022/01/07 06:32:52;;;;;;;6.70;6.10;;;1.00;51.60;;;;;;20503;6854;295741;-89
2022/01/07 06:35:17;;;;;;;5.90;5.50;;;1.10;50.30;;;;;;20521;6854;308481;-88
2022/01/07 06:37:42;;;;;;;5.78;5.37;;;1.50;49.60;;;;;;20703;6854;120440;-88
2022/01/07 06:40:08;;;;;;;5.30;4.90;;;1.50;49.50;;;;;;20759;6854;121155;-90
2022/01/07 06:42:33;;;;;;;5.00;4.57;;;1.30;50.00;;;;;;20764;6854;116931;-87
2022/01/07 06:45:00;;;;;;;6.55;6.05;;;1.10;50.50;;;;;;20546;6854;310197;-90
2022/01/07 06:47:26;;;;;;;5.50;5.00;;;1.20;50.20;;;;;;20722;6854;117670;-85
2022/01/07 06:49:53;;;;;;;6.80;6.20;;;1.50;49.80;;;;;;20489;6854;298993;-85
2022/01/07 06:52:18;;;;;;;5.90;5.40;;;1.50;49.80;;;;;;20706;6854;119481;-88
2022/01/07 06:54:43;;;;;;;5.60;4.80;;;1.50;49.80;;;;;;20728;6854;117225;-87
2022/01/07 06:57:09;;;;;;;5.10;4.70;;;1.40;50.20;;;;;;20716;6854;116514;-86
2022/01/07 06:59:34;;;;;;;5.13;4.73;;;1.20;50.50;;;;;;20725;6854;117381;-88
2022/01/07 07:02:00;;;;;;;6.53;6.03;;;1.10;50.90;;;;;;20485;6854;309097;-85
2022/01/07 07:04:26;;;;;;;6.03;5.40;;;1.30;50.20;;;;;;20729;6854;117925;-89
2022/01/07 07:06:51;;;;;;;6.00;5.40;;;1.40;50.00;;;;;;20735;6854;117684;-89
2022/01/07 07:09:18;;;;;;;5.32;4.93;;;1.30;50.20;;;;;;20724;6854;117407;-85
2022/01/07 07:11:43;;;;;;;5.60;5.10;;;1.20;50.60;;;;;;20699;6854;117185;-87
2022/01/07 07:14:08;;;;;;;6.73;6.23;;;1.10;50.90;;;;;;20500;6854;299540;-90
2022/01/07 07:16:33;;;;;;;5.62;5.15;;;1.30;50.50;;;;;;20787;6854;118232;-90
2022/01/07 07:18:59;;;;;;;5.97;5.47;;;1.40;50.40;;;;;;20779;6854;116521;-90
2022/01/07 07:21:25;;;;;;;7.37;6.78;;;1.30;50.60;;;;;;20537;6854;282094;-89
2022/01/07 07:23:50;;;;;;;7.43;6.90;;;1.50;50.30;;;;;;20487;6854;306680;-85
2022/01/07 07:26:16;;;;;;;6.30;5.70;;;1.80;49.50;;;;;;20715;6854;117974;-84
2022/01/07 07:28:43;;;;;;;7.07;6.47;;;1.80;49.30;;;;;;20511;6854;308538;-88
2022/01/07 07:31:14;;;;;;;6.72;6.18;;;1.90;49.20;;;;;;20497;6854;309062;-84
2022/01/07 07:36:29;;;;;;;6.50;6.00;;;2.20;48.70;;;;;;20506;6852;308581;-84
2022/01/07 07:38:53;;;;;;;7.10;6.60;;;2.50;47.80;;;;;;20491;6854;337356;-89
2022/01/07 07:41:20;;;;;;;6.80;6.30;;;2.50;47.80;;;;;;20487;6854;311458;-88
2022/01/07 07:43:47;;;;;;;6.70;6.20;;;2.70;47.50;;;;;;20477;6854;309031;-87
2022/01/07 07:46:11;;;;;;;6.20;5.70;;;2.90;46.90;;;;;;20643;6854;120004;-85
2022/01/07 07:48:36;;;;;;;8.50;7.00;;;2.80;47.30;;;;;;20461;6854;282505;-84
2022/01/07 07:51:04;;;;;;;7.47;6.87;;;2.70;47.40;;;;;;20457;6854;280823;-88
2022/01/07 07:53:29;;;;;;;7.17;6.57;;;2.90;47.00;;;;;;20459;6854;311327;-86
2022/01/07 07:55:57;;;;;;;6.50;6.00;;;2.90;47.20;;;;;;20662;6854;122955;-90
2022/01/07 07:58:22;;;;;;;6.37;5.87;;;2.90;47.20;;;;;;20706;6854;121088;-87
2022/01/07 08:00:48;;;;;;;6.93;6.37;;;2.60;47.90;;;;;;20490;6854;280069;-85
2022/01/07 08:03:13;;;;;;;7.17;6.63;;;2.70;48.10;;;;;;20470;6854;283244;-88
2022/01/07 08:05:39;;;;;;;7.13;6.53;;;2.90;47.60;;;;;;20463;6854;308996;-89
2022/01/07 08:08:05;;;;;;;7.17;5.90;;;3.20;47.30;;;;;;20695;6854;117414;-90
2022/01/07 08:10:32;;;;;;;9.70;8.70;;;3.20;47.60;;;;;;20689;6854;117484;-86
2022/01/07 08:18:20;;;;;;;6.20;5.80;;;3.50;47.70;;;;;;20707;6854;118120;-90
2022/01/07 08:20:44;;;;;;;7.12;6.57;;;3.60;47.60;;;;;;20483;6854;279269;-90
2022/01/07 08:23:10;;;;;;;7.50;6.90;;;3.60;47.10;;;;;;20534;6854;279707;-89
2022/01/07 08:25:35;;;;;;;6.03;5.53;;;3.80;46.20;;;;;;20748;6854;146029;-85
2022/01/07 08:28:03;;;;;;;6.68;6.05;;;3.50;47.10;;;;;;20756;6854;121241;-88
2022/01/07 08:30:35;;;;;;;6.27;5.60;;;3.40;47.00;;;;;;20727;6854;118370;-85
2022/01/07 08:35:55;;;;;;;5.90;5.40;;;3.00;48.20;;;;;;20736;6854;117425;-86
2022/01/07 08:38:20;;;;;;;7.73;7.03;;;2.90;48.80;;;;;;20549;6854;293115;-86
2022/01/07 08:40:46;;;;;;;6.68;6.12;;;3.00;47.80;;;;;;20756;6854;117452;-86
2022/01/07 08:43:11;;;;;;;7.73;7.23;;;3.10;47.80;;;;;;20544;6854;309076;-86
2022/01/07 08:45:37;;;;;;;7.93;7.07;;;3.30;47.80;;;;;;20494;6854;312886;-85
2022/01/07 08:48:03;;;;;;;6.83;6.33;;;3.60;47.10;;;;;;20688;6852;117310;-88
2022/01/07 08:50:28;;;;;;;7.87;7.37;;;3.60;47.30;;;;;;20497;6854;309205;-91
2022/01/07 08:52:56;;;;;;;8.18;7.57;;;3.70;47.30;;;;;;20738;6854;116676;-88
2022/01/07 08:55:20;;;;;;;8.18;7.57;;;3.70;47.50;;;;;;20458;6854;290803;-93
2022/01/07 08:57:45;;;;;;;7.77;7.07;;;3.80;47.10;;;;;;20771;6854;116579;-92
2022/01/07 09:00:11;;;;;;;9.95;9.15;;;3.80;47.40;;;;;;20574;6854;308012;-89
2022/01/07 09:02:36;;;;;;;9.83;9.00;;;3.90;47.20;;;;;;20546;6854;309725;-88
2022/01/07 09:05:02;;;;;;;10.50;9.70;;;4.10;46.90;;;;;;20545;6854;308231;-90
2022/01/07 09:07:28;;;;;;;11.40;10.43;;;4.30;46.50;;;;;;20764;6854;116389;-88
2022/01/07 09:09:53;;;;;;;9.25;8.35;;;4.20;46.60;;;;;;20677;6854;122340;-88
2022/01/07 09:12:19;;;;;;;9.73;8.23;;;3.90;47.10;;;;;;20764;6854;116487;-90
2022/01/07 09:14:45;;;;;;;8.63;7.60;;;3.60;47.80;;;;;;20738;6854;120136;-89
2022/01/07 09:17:10;;;;;;;9.00;8.30;;;3.40;49.10;;;;;;20538;6854;340197;-91
2022/01/07 09:19:38;;;;;;;8.07;7.40;;;3.60;48.50;;;;;;20737;6854;126271;-90
2022/01/07 09:22:04;;;;;;;8.33;7.47;;;3.50;48.90;;;;;;20744;6854;119578;-90
2022/01/07 09:24:29;;;;;;;7.00;6.40;;;3.40;48.70;;;;;;20757;6854;116562;-91
2022/01/07 09:26:55;;;;;;;7.22;6.60;;;3.30;49.10;;;;;;20730;6854;121113;-86
2022/01/07 09:29:23;;;;;;;7.00;6.30;;;3.30;49.50;;;;;;20682;6854;119465;-88
2022/01/07 09:31:47;;;;;;;7.83;7.23;;;3.40;49.00;;;;;;20443;6854;309576;-87
2022/01/07 09:34:13;;;;;;;6.87;6.37;;;3.40;49.00;;;;;;20429;6854;278955;-91
2022/01/07 09:36:38;;;;;;;8.03;7.33;;;3.90;48.60;;;;;;20482;6854;279947;-85
2022/01/07 09:39:04;;;;;;;8.30;7.60;;;4.30;49.80;;;;;;20486;6854;279066;-86
2022/01/07 09:41:29;;;;;;;7.80;7.10;;;4.70;48.80;;;;;;20700;6854;117705;-87
2022/01/07 09:43:55;;;;;;;9.10;8.23;;;4.80;48.70;;;;;;20470;6854;338371;-89
2022/01/07 09:46:20;;;;;;;8.80;8.10;;;4.90;47.80;;;;;;20477;6854;316893;-86
2022/01/07 09:48:46;;;;;;;8.07;7.47;;;5.20;46.70;;;;;;20697;6854;116249;-85
2022/01/07 09:51:11;;;;;;;9.13;8.33;;;5.10;46.70;;;;;;20483;6854;306505;-89
2022/01/07 09:53:37;;;;;;;7.20;6.63;;;5.20;46.60;;;;;;20652;6854;117632;-85
2022/01/07 09:56:04;;;;;;;8.00;7.40;;;5.20;47.00;;;;;;20485;6854;308249;-85
2022/01/07 09:58:29;;;;;;;6.63;6.13;;;5.40;46.70;;;;;;20690;6852;117617;-85
2022/01/07 10:00:54;;;;;;;6.43;5.83;;;5.30;46.60;;;;;;20690;6853;117181;-87
2022/01/07 10:03:20;;;;;;;5.85;5.45;;;5.20;47.00;;;;;;20670;6854;118983;-87
2022/01/07 10:05:46;;;;;;;5.20;4.80;;;4.90;47.90;;;;;;20643;6854;118124;-87
2022/01/07 10:08:20;;;;;;;6.70;6.20;;;4.90;47.90;;;;;;20450;6854;309094;-87
2022/01/07 10:10:45;;;;;;;6.80;5.77;;;5.10;47.20;;;;;;20677;6854;117172;-85
2022/01/07 10:13:12;;;;;;;5.22;4.82;;;5.10;47.70;;;;;;20686;6854;117185;-84
2022/01/07 10:15:37;;;;;;;5.23;4.83;;;5.10;47.60;;;;;;20656;6854;120123;-87
2022/01/07 10:18:06;;;;;;;5.62;5.22;;;5.00;48.00;;;;;;20666;6854;117619;-85
2022/01/07 10:20:32;;;;;;;5.53;5.13;;;4.90;48.20;;;;;;20683;6854;117514;-87
2022/01/07 10:25:37;;;;;;;6.93;6.33;;;5.00;47.90;;;;;;19372;6854;308827;-88
2022/01/07 10:28:03;;;;;;;6.17;5.67;;;5.50;47.00;;;;;;20695;6854;117735;-87
2022/01/07 10:30:32;;;;;;;7.00;6.50;;;5.60;47.00;;;;;;20485;6854;313512;-86
2022/01/07 10:32:59;;;;;;;6.20;5.70;;;5.70;46.50;;;;;;20706;6854;117613;-87
2022/01/07 10:35:24;;;;;;;6.77;6.17;;;5.70;46.70;;;;;;20703;6854;117425;-82
2022/01/07 10:38:16;;;;;;;6.97;6.37;;;5.50;47.00;;;;;;20127;6854;283778;-89
2022/01/07 10:40:41;;;;;;;7.15;6.65;;;5.60;46.70;;;;;;20400;6884;341064;-82
2022/01/07 10:43:24;;;;;;;7.37;6.70;;;5.90;46.10;;;;;;20450;6872;316596;-84
2022/01/07 10:45:49;;;;;;;6.10;5.60;;;6.10;45.40;;;;;;20614;6857;117273;-84
2022/01/07 10:48:14;;;;;;;6.30;5.80;;;6.00;45.60;;;;;;20645;6872;117461;-88
2022/01/07 10:51:13;;;;;;;8.20;7.00;;;5.80;46.30;;;;;;20380;6872;312236;-87
2022/01/07 10:53:38;;;;;;;7.35;6.78;;;5.80;46.30;;;;;;20405;6857;340354;-84
2022/01/07 10:56:09;;;;;;;7.87;7.17;;;6.10;45.80;;;;;;20707;6857;117817;-87
2022/01/07 10:59:03;;;;;;;7.60;6.90;;;6.10;46.10;;;;;;20694;6857;118188;-93
2022/01/07 11:01:38;;;;;;;8.13;6.87;;;5.80;46.60;;;;;;20681;6857;120257;-89
2022/01/07 11:04:09;;;;;;;7.60;6.83;;;5.50;47.10;;;;;;20612;6857;117443;-89
2022/01/07 11:06:34;;;;;;;8.40;7.70;;;5.30;47.70;;;;;;20473;6857;313231;-87
2022/01/07 11:09:00;;;;;;;7.93;7.10;;;5.40;47.60;;;;;;20691;6857;117320;-90
2022/01/07 11:11:25;;;;;;;7.27;6.67;;;5.40;47.60;;;;;;20660;6855;119585;-87
2022/01/07 11:14:05;;;;;;;8.80;8.10;;;5.30;47.90;;;;;;20383;6856;301055;-87
2022/01/07 11:16:32;;;;;;;8.40;7.70;;;5.40;47.80;;;;;;20684;6856;120104;-88
2022/01/07 11:18:58;;;;;;;7.97;7.27;;;5.30;47.70;;;;;;20678;6856;116977;-88
2022/01/07 11:21:23;;;;;;;7.37;6.72;;;5.20;48.10;;;;;;20699;6856;118496;-87
2022/01/07 11:23:49;;;;;;;8.80;8.10;;;5.10;48.40;;;;;;20474;6856;310375;-84
2022/01/07 11:29:11;;;;;;;8.07;7.47;;;5.50;48.10;;;;;;20483;6856;308199;-86
2022/01/07 11:32:14;;;;;;;8.47;7.77;;;5.90;47.50;;;;;;20485;6857;280221;-93
2022/01/07 11:34:38;;;;;;;8.10;7.50;;;6.10;47.10;;;;;;20483;6857;313878;-87
2022/01/07 11:37:03;;;;;;;8.07;7.50;;;6.30;46.80;;;;;;20474;6857;308241;-86
2022/01/07 11:39:29;;;;;;;7.80;7.20;;;6.40;46.50;;;;;;20458;6857;322640;-90
2022/01/07 11:41:58;;;;;;;7.17;6.57;;;6.60;46.50;;;;;;20652;6857;119249;-84
2022/01/07 11:44:55;;;;;;;;;;;;;;;;;;;;;
2022/01/07 11:47:32;;;;;;;7.60;7.00;;;6.30;46.90;;;;;;19309;7206;323025;-87
2022/01/07 11:50:03;;;;;;;6.80;6.30;;;6.50;46.70;;;;;;20318;6872;119541;-89
2022/01/07 11:52:37;;;;;;;7.03;6.47;;;6.30;46.90;;;;;;20702;6857;116768;-85
2022/01/07 11:55:30;;;;;;;7.87;7.20;;;6.00;47.60;;;;;;20453;6872;309091;-84
2022/01/07 11:57:57;;;;;;;8.32;7.62;;;6.10;47.80;;;;;;20476;6857;310826;-87
2022/01/07 12:03:48;;;;;;;8.10;7.50;;;6.60;47.20;;;;;;20358;6857;303155;-84
2022/01/07 12:06:30;;;;;;;7.30;6.70;;;6.80;46.80;;;;;;20615;6857;69364;-89
2022/01/07 12:12:10;;;;;;;7.77;6.93;;;6.40;47.80;;;;;;20691;6857;117383;-85
2022/01/07 12:14:35;;;;;;;9.17;8.37;;;6.10;48.40;;;;;;20490;6857;278253;-82
2022/01/07 12:17:01;;;;;;;8.30;7.57;;;6.30;48.30;;;;;;20698;6857;117267;-84
2022/01/07 12:43:46;;;;;;;7.68;7.18;;;7.20;45.80;;;;;;20725;6505;277778;-90
2022/01/07 12:46:12;;;;;;;7.03;6.40;;;7.20;46.00;;;;;;20765;6814;116959;-90
2022/01/07 12:51:29;;;;;;;5.73;5.33;;;6.40;47.90;;;;;;19425;6880;69888;-86
2022/01/07 12:53:54;;;;;;;6.80;6.30;;;6.00;48.00;;;;;;20670;6880;119835;-90
2022/01/07 12:56:22;;;;;;;6.70;6.10;;;5.80;48.70;;;;;;20685;6880;116856;-88
2022/01/07 12:58:48;;;;;;;7.23;6.67;;;5.60;49.10;;;;;;20363;6884;324686;-84
2022/01/07 13:01:29;;;;;;;6.80;6.30;;;5.70;49.50;;;;;;20421;6884;311854;-86
2022/01/07 13:04:08;;;;;;;6.53;6.10;;;6.00;49.10;;;;;;20507;6880;116857;-84
2022/01/07 13:06:39;;;;;;;5.83;5.40;;;6.00;48.90;;;;;;20415;6861;312941;-87
2022/01/07 13:09:05;;;;;;;6.28;5.78;;;6.10;48.60;;;;;;20459;6645;352606;-88
2022/01/07 13:11:31;;;;;;;5.40;5.00;;;6.30;47.90;;;;;;20787;6827;118448;-87
2022/01/07 13:14:06;;;;;;;6.20;5.60;;;6.20;48.00;;;;;;20476;6827;317882;-91
2022/01/07 13:16:31;;;;;;;5.60;5.13;;;6.20;47.90;;;;;;20847;6816;117199;-88
2022/01/07 13:21:59;;;;;;;6.32;5.93;;;5.80;48.60;;;;;;19302;7233;327245;-83
2022/01/07 13:24:27;;;;;;;5.85;5.45;;;6.00;48.40;;;;;;19384;7233;298646;-83
2022/01/07 13:26:51;;;;;;;5.85;5.45;;;6.20;47.90;;;;;;19348;6875;321845;-83
2022/01/07 13:29:17;;;;;;;5.37;4.97;;;6.40;47.60;;;;;;20641;6875;119874;-86
2022/01/07 13:31:45;;;;;;;4.83;4.43;;;5.90;48.20;;;;;;20625;6875;118446;-85
2022/01/07 13:34:10;;;;;;;4.90;4.50;;;5.90;48.20;;;;;;20639;6875;118437;-82